sensor_id;sensor_type;location;lat;lon;timestamp;pressure;altitude;pressure_sealevel;temperature;humidity
40384;BME280;26097;42.366;23.818;2022-10-16T00:01:48;94775.31;;;3.47;100.00
40384;BME280;26097;42.366;23.818;2022-10-16T00:04:48;94776.00;;;3.50;100.00
40384;BME280;26097;42.366;23.818;2022-10-16T00:07:49;94776.00;;;3.50;100.00
40384;BME280;26097;42.366;23.818;2022-10-16T00:10:49;94770.16;;;3.47;100.00
40384;BME280;26097;42.366;23.818;2022-10-16T00:13:51;94773.72;;;3.42;100.00
40384;BME280;26097;42.366;23.818;2022-10-16T00:16:52;94772.03;;;3.41;100.00
40384;BME280;26097;42.366;23.818;2022-10-16T00:19:52;94770.44;;;3.39;100.00
40384;BME280;26097;42.366;23.818;2022-10-16T00:22:52;94770.22;;;3.43;100.00
40384;BME280;26097;42.366;23.818;2022-10-16T00:25:58;94776.47;;;3.38;100.00
40384;BME280;26097;42.366;23.818;2022-10-16T00:28:59;94775.75;;;3.34;100.00
40384;BME280;26097;42.366;23.818;2022-10-16T00:31:59;94779.84;;;3.40;100.00
40384;BME280;26097;42.366;23.818;2022-10-16T00:35:00;94778.28;;;3.36;100.00
40384;BME280;26097;42.366;23.818;2022-10-16T00:38:00;94780.34;;;3.26;100.00
40384;BME280;26097;42.366;23.818;2022-10-16T00:41:01;94779.38;;;3.28;100.00
40384;BME280;26097;42.366;23.818;2022-10-16T00:44:04;94785.31;;;3.31;100.00
40384;BME280;26097;42.366;23.818;2022-10-16T00:50:30;94789.81;;;3.25;100.00
40384;BME280;26097;42.366;23.818;2022-10-16T00:53:31;94801.13;;;3.21;100.00
40384;BME280;26097;42.366;23.818;2022-10-16T00:56:31;94810.69;;;3.18;100.00
40384;BME280;26097;42.366;23.818;2022-10-16T00:59:36;94817.50;;;3.19;100.00
40384;BME280;26097;42.366;23.818;2022-10-16T01:02:37;94815.97;;;3.13;100.00
40384;BME280;26097;42.366;23.818;2022-10-16T01:05:44;94809.34;;;3.07;100.00
40384;BME280;26097;42.366;23.818;2022-10-16T01:08:59;94805.91;;;3.07;100.00
40384;BME280;26097;42.366;23.818;2022-10-16T01:12:10;94808.81;;;2.97;100.00
40384;BME280;26097;42.366;23.818;2022-10-16T01:18:50;94808.19;;;2.91;100.00
40384;BME280;26097;42.366;23.818;2022-10-16T01:21:55;94815.06;;;2.90;100.00
40384;BME280;26097;42.366;23.818;2022-10-16T01:25:00;94823.00;;;2.84;100.00
40384;BME280;26097;42.366;23.818;2022-10-16T01:28:07;94829.06;;;2.81;100.00
40384;BME280;26097;42.366;23.818;2022-10-16T01:31:18;94826.56;;;2.80;100.00
40384;BME280;26097;42.366;23.818;2022-10-16T01:34:31;94828.34;;;2.78;100.00
40384;BME280;26097;42.366;23.818;2022-10-16T01:37:48;94831.06;;;2.73;100.00
40384;BME280;26097;42.366;23.818;2022-10-16T01:40:53;94820.13;;;2.66;100.00
40384;BME280;26097;42.366;23.818;2022-10-16T01:44:11;94821.94;;;2.64;100.00
40384;BME280;26097;42.366;23.818;2022-10-16T01:47:15;94822.03;;;2.61;100.00
40384;BME280;26097;42.366;23.818;2022-10-16T01:50:19;94822.13;;;2.58;100.00
40384;BME280;26097;42.366;23.818;2022-10-16T01:53:21;94823.94;;;2.56;100.00
40384;BME280;26097;42.366;23.818;2022-10-16T01:56:24;94826.53;;;2.54;100.00
40384;BME280;26097;42.366;23.818;2022-10-16T01:59:26;94822.31;;;2.52;100.00
40384;BME280;26097;42.366;23.818;2022-10-16T02:02:28;94827.56;;;2.49;100.00
40384;BME280;26097;42.366;23.818;2022-10-16T02:05:31;94827.47;;;2.52;100.00
40384;BME280;26097;42.366;23.818;2022-10-16T02:08:35;94822.50;;;2.47;100.00
40384;BME280;26097;42.366;23.818;2022-10-16T02:11:36;94831.13;;;2.45;100.00
40384;BME280;26097;42.366;23.818;2022-10-16T02:14:38;94831.25;;;2.41;100.00
40384;BME280;26097;42.366;23.818;2022-10-16T02:17:38;94834.81;;;2.37;100.00
40384;BME280;26097;42.366;23.818;2022-10-16T02:27:40;94834.63;;;2.42;100.00
40384;BME280;26097;42.366;23.818;2022-10-16T02:30:42;94832.91;;;2.42;100.00
40384;BME280;26097;42.366;23.818;2022-10-16T02:33:45;94836.38;;;2.41;100.00
40384;BME280;26097;42.366;23.818;2022-10-16T02:36:47;94842.44;;;2.40;100.00
40384;BME280;26097;42.366;23.818;2022-10-16T02:39:48;94840.78;;;2.38;100.00
40384;BME280;26097;42.366;23.818;2022-10-16T02:42:53;94846.78;;;2.38;100.00
40384;BME280;26097;42.366;23.818;2022-10-16T02:45:54;94840.84;;;2.36;100.00
40384;BME280;26097;42.366;23.818;2022-10-16T02:48:58;94845.09;;;2.37;100.00
40384;BME280;26097;42.366;23.818;2022-10-16T02:51:58;94835.78;;;2.33;100.00
40384;BME280;26097;42.366;23.818;2022-10-16T02:54:58;94847.03;;;2.31;100.00
40384;BME280;26097;42.366;23.818;2022-10-16T02:57:59;94854.78;;;2.29;100.00
40384;BME280;26097;42.366;23.818;2022-10-16T03:00:59;94853.19;;;2.25;100.00
40384;BME280;26097;42.366;23.818;2022-10-16T03:04:00;94848.94;;;2.24;100.00
40384;BME280;26097;42.366;23.818;2022-10-16T03:07:00;94853.09;;;2.28;100.00
40384;BME280;26097;42.366;23.818;2022-10-16T03:10:01;94858.31;;;2.26;100.00
40384;BME280;26097;42.366;23.818;2022-10-16T03:13:01;94869.72;;;2.18;100.00
40384;BME280;26097;42.366;23.818;2022-10-16T03:16:01;94857.81;;;2.13;100.00
40384;BME280;26097;42.366;23.818;2022-10-16T03:19:02;94862.88;;;2.17;100.00
40384;BME280;26097;42.366;23.818;2022-10-16T03:22:02;94860.44;;;2.12;100.00
40384;BME280;26097;42.366;23.818;2022-10-16T03:25:03;94856.28;;;2.08;100.00
40384;BME280;26097;42.366;23.818;2022-10-16T03:28:04;94860.78;;;2.01;100.00
40384;BME280;26097;42.366;23.818;2022-10-16T03:31:04;94853.97;;;1.98;100.00
40384;BME280;26097;42.366;23.818;2022-10-16T03:34:05;94858.38;;;1.95;100.00
40384;BME280;26097;42.366;23.818;2022-10-16T03:37:05;94863.59;;;1.92;100.00
40384;BME280;26097;42.366;23.818;2022-10-16T03:40:06;94866.28;;;1.89;100.00
40384;BME280;26097;42.366;23.818;2022-10-16T03:43:06;94865.56;;;1.83;100.00
40384;BME280;26097;42.366;23.818;2022-10-16T03:46:07;94859.56;;;1.83;100.00
40384;BME280;26097;42.366;23.818;2022-10-16T03:49:07;94862.13;;;1.84;100.00
40384;BME280;26097;42.366;23.818;2022-10-16T03:52:08;94869.84;;;1.83;100.00
40384;BME280;26097;42.366;23.818;2022-10-16T03:55:08;94861.53;;;1.75;100.00
40384;BME280;26097;42.366;23.818;2022-10-16T03:58:09;94857.16;;;1.78;100.00
40384;BME280;26097;42.366;23.818;2022-10-16T04:01:09;94866.47;;;1.82;100.00
40384;BME280;26097;42.366;23.818;2022-10-16T04:04:09;94864.94;;;1.75;100.00
40384;BME280;26097;42.366;23.818;2022-10-16T04:07:10;94859.09;;;1.70;100.00
40384;BME280;26097;42.366;23.818;2022-10-16T04:10:10;94863.22;;;1.76;100.00
40384;BME280;26097;42.366;23.818;2022-10-16T04:13:11;94862.16;;;1.83;100.00
40384;BME280;26097;42.366;23.818;2022-10-16T04:16:12;94861.41;;;1.79;100.00
40384;BME280;26097;42.366;23.818;2022-10-16T04:19:12;94865.91;;;1.71;100.00
40384;BME280;26097;42.366;23.818;2022-10-16T04:22:13;94868.53;;;1.69;100.00
40384;BME280;26097;42.366;23.818;2022-10-16T04:25:13;94865.13;;;1.69;100.00
40384;BME280;26097;42.366;23.818;2022-10-16T04:28:14;94865.34;;;1.61;100.00
40384;BME280;26097;42.366;23.818;2022-10-16T04:31:14;94867.06;;;1.61;100.00
40384;BME280;26097;42.366;23.818;2022-10-16T04:34:15;94862.75;;;1.63;100.00
40384;BME280;26097;42.366;23.818;2022-10-16T04:37:15;94872.25;;;1.59;100.00
40384;BME280;26097;42.366;23.818;2022-10-16T04:40:16;94867.97;;;1.60;100.00
40384;BME280;26097;42.366;23.818;2022-10-16T04:43:16;94866.22;;;1.60;100.00
40384;BME280;26097;42.366;23.818;2022-10-16T04:46:17;94872.16;;;1.62;100.00
40384;BME280;26097;42.366;23.818;2022-10-16T04:49:17;94867.88;;;1.63;100.00
40384;BME280;26097;42.366;23.818;2022-10-16T04:52:17;94877.09;;;1.70;100.00
40384;BME280;26097;42.366;23.818;2022-10-16T04:55:19;94883.19;;;1.66;100.00
40384;BME280;26097;42.366;23.818;2022-10-16T04:58:19;94884.88;;;1.67;100.00
40384;BME280;26097;42.366;23.818;2022-10-16T05:01:19;94891.50;;;1.76;100.00
40384;BME280;26097;42.366;23.818;2022-10-16T05:04:20;94895.53;;;1.84;100.00
40384;BME280;26097;42.366;23.818;2022-10-16T05:07:20;94901.28;;;1.93;100.00
40384;BME280;26097;42.366;23.818;2022-10-16T05:10:21;94905.69;;;1.89;100.00
40384;BME280;26097;42.366;23.818;2022-10-16T05:13:21;94909.88;;;1.92;100.00
40384;BME280;26097;42.366;23.818;2022-10-16T05:16:21;94918.94;;;2.05;100.00
40384;BME280;26097;42.366;23.818;2022-10-16T05:19:22;94919.53;;;2.13;100.00
40384;BME280;26097;42.366;23.818;2022-10-16T05:22:22;94922.84;;;2.19;100.00
40384;BME280;26097;42.366;23.818;2022-10-16T05:25:23;94925.19;;;2.26;100.00
40384;BME280;26097;42.366;23.818;2022-10-16T05:28:25;94929.91;;;2.40;100.00
40384;BME280;26097;42.366;23.818;2022-10-16T05:31:26;94928.63;;;2.54;100.00
40384;BME280;26097;42.366;23.818;2022-10-16T05:34:26;94942.00;;;2.65;100.00
40384;BME280;26097;42.366;23.818;2022-10-16T05:37:27;94931.13;;;2.84;100.00
40384;BME280;26097;42.366;23.818;2022-10-16T05:40:27;94934.94;;;2.99;100.00
40384;BME280;26097;42.366;23.818;2022-10-16T05:43:29;94933.50;;;3.17;100.00
40384;BME280;26097;42.366;23.818;2022-10-16T05:46:29;94938.13;;;3.33;100.00
40384;BME280;26097;42.366;23.818;2022-10-16T05:49:30;94940.97;;;3.50;100.00
40384;BME280;26097;42.366;23.818;2022-10-16T05:52:30;94938.66;;;3.68;100.00
40384;BME280;26097;42.366;23.818;2022-10-16T05:55:31;94940.47;;;3.90;100.00
40384;BME280;26097;42.366;23.818;2022-10-16T05:58:33;94937.22;;;4.08;100.00
40384;BME280;26097;42.366;23.818;2022-10-16T06:01:34;94937.50;;;4.24;100.00
40384;BME280;26097;42.366;23.818;2022-10-16T06:04:35;94944.44;;;4.46;100.00
40384;BME280;26097;42.366;23.818;2022-10-16T06:07:36;94945.47;;;4.64;100.00
40384;BME280;26097;42.366;23.818;2022-10-16T06:10:36;94943.06;;;4.82;100.00
40384;BME280;26097;42.366;23.818;2022-10-16T06:13:37;94951.13;;;4.96;100.00
40384;BME280;26097;42.366;23.818;2022-10-16T06:16:38;94952.19;;;5.13;100.00
40384;BME280;26097;42.366;23.818;2022-10-16T06:19:38;94947.16;;;5.31;100.00
40384;BME280;26097;42.366;23.818;2022-10-16T06:22:39;94952.44;;;5.48;100.00
40384;BME280;26097;42.366;23.818;2022-10-16T06:25:39;94953.63;;;5.62;100.00
40384;BME280;26097;42.366;23.818;2022-10-16T06:28:39;94958.13;;;5.77;100.00
40384;BME280;26097;42.366;23.818;2022-10-16T06:31:40;94966.25;;;5.89;100.00
40384;BME280;26097;42.366;23.818;2022-10-16T06:34:40;94964.91;;;6.00;100.00
40384;BME280;26097;42.366;23.818;2022-10-16T06:37:41;94972.91;;;6.15;100.00
40384;BME280;26097;42.366;23.818;2022-10-16T06:40:41;94970.50;;;6.31;100.00
40384;BME280;26097;42.366;23.818;2022-10-16T06:43:42;94973.38;;;6.44;100.00
40384;BME280;26097;42.366;23.818;2022-10-16T06:46:45;94975.19;;;6.61;100.00
40384;BME280;26097;42.366;23.818;2022-10-16T06:49:45;94972.84;;;6.74;100.00
40384;BME280;26097;42.366;23.818;2022-10-16T06:52:45;94973.81;;;6.91;100.00
40384;BME280;26097;42.366;23.818;2022-10-16T06:55:46;94985.34;;;7.03;100.00
40384;BME280;26097;42.366;23.818;2022-10-16T06:58:46;94977.81;;;7.15;100.00
40384;BME280;26097;42.366;23.818;2022-10-16T07:01:47;94975.41;;;7.30;100.00
40384;BME280;26097;42.366;23.818;2022-10-16T07:04:47;94995.47;;;7.44;100.00
40384;BME280;26097;42.366;23.818;2022-10-16T07:07:48;94987.88;;;7.58;100.00
40384;BME280;26097;42.366;23.818;2022-10-16T07:10:48;94998.72;;;7.67;100.00
40384;BME280;26097;42.366;23.818;2022-10-16T07:13:49;94994.50;;;7.82;100.00
40384;BME280;26097;42.366;23.818;2022-10-16T07:16:50;95000.84;;;7.94;100.00
40384;BME280;26097;42.366;23.818;2022-10-16T07:19:50;95002.81;;;8.06;100.00
40384;BME280;26097;42.366;23.818;2022-10-16T07:22:53;94996.81;;;8.22;100.00
40384;BME280;26097;42.366;23.818;2022-10-16T07:25:54;94997.69;;;8.38;100.00
40384;BME280;26097;42.366;23.818;2022-10-16T07:28:55;94995.22;;;8.53;100.00
40384;BME280;26097;42.366;23.818;2022-10-16T07:31:57;94992.75;;;8.67;100.00
40384;BME280;26097;42.366;23.818;2022-10-16T07:34:57;94993.06;;;8.77;100.00
40384;BME280;26097;42.366;23.818;2022-10-16T07:37:58;94993.41;;;8.87;100.00
40384;BME280;26097;42.366;23.818;2022-10-16T07:41:06;94998.69;;;9.02;100.00
40384;BME280;26097;42.366;23.818;2022-10-16T07:44:07;95000.59;;;9.14;100.00
40384;BME280;26097;42.366;23.818;2022-10-16T07:47:08;94993.81;;;9.27;100.00
40384;BME280;26097;42.366;23.818;2022-10-16T07:50:09;94993.94;;;9.40;100.00
40384;BME280;26097;42.366;23.818;2022-10-16T07:53:10;94993.22;;;9.53;100.00
40384;BME280;26097;42.366;23.818;2022-10-16T07:56:11;95000.25;;;9.67;100.00
40384;BME280;26097;42.366;23.818;2022-10-16T07:59:12;94998.44;;;9.83;100.00
40384;BME280;26097;42.366;23.818;2022-10-16T08:02:12;95005.34;;;9.99;100.00
40384;BME280;26097;42.366;23.818;2022-10-16T08:05:12;95005.38;;;10.13;100.00
40384;BME280;26097;42.366;23.818;2022-10-16T08:08:13;95003.97;;;10.22;100.00
40384;BME280;26097;42.366;23.818;2022-10-16T08:11:14;95000.72;;;10.33;100.00
40384;BME280;26097;42.366;23.818;2022-10-16T08:14:15;94992.56;;;10.54;100.00
40384;BME280;26097;42.366;23.818;2022-10-16T08:17:15;94994.22;;;10.69;100.00
40384;BME280;26097;42.366;23.818;2022-10-16T08:20:15;94991.97;;;10.78;100.00
40384;BME280;26097;42.366;23.818;2022-10-16T08:23:16;94996.72;;;10.85;100.00
40384;BME280;26097;42.366;23.818;2022-10-16T08:26:16;94993.38;;;10.83;100.00
40384;BME280;26097;42.366;23.818;2022-10-16T08:29:17;94993.44;;;10.96;100.00
40384;BME280;26097;42.366;23.818;2022-10-16T08:32:17;94999.50;;;10.97;100.00
40384;BME280;26097;42.366;23.818;2022-10-16T08:35:17;95000.75;;;11.19;100.00
40384;BME280;26097;42.366;23.818;2022-10-16T08:38:18;94999.13;;;11.31;100.00
40384;BME280;26097;42.366;23.818;2022-10-16T08:50:52;94997.25;;;11.73;100.00
40384;BME280;26097;42.366;23.818;2022-10-16T08:54:04;94998.13;;;11.86;100.00
40384;BME280;26097;42.366;23.818;2022-10-16T08:57:20;94999.81;;;11.88;100.00
40384;BME280;26097;42.366;23.818;2022-10-16T09:00:21;94999.59;;;11.91;100.00
40384;BME280;26097;42.366;23.818;2022-10-16T09:03:28;94999.81;;;12.00;100.00
40384;BME280;26097;42.366;23.818;2022-10-16T09:19:27;94980.91;;;12.49;100.00
40384;BME280;26097;42.366;23.818;2022-10-16T09:22:31;94981.31;;;12.68;100.00
40384;BME280;26097;42.366;23.818;2022-10-16T09:25:33;94982.03;;;12.70;100.00
40384;BME280;26097;42.366;23.818;2022-10-16T09:28:34;94981.81;;;12.74;100.00
40384;BME280;26097;42.366;23.818;2022-10-16T09:31:36;94983.50;;;12.75;100.00
40384;BME280;26097;42.366;23.818;2022-10-16T09:34:40;94975.06;;;12.95;100.00
40384;BME280;26097;42.366;23.818;2022-10-16T09:37:44;94975.25;;;13.29;100.00
40384;BME280;26097;42.366;23.818;2022-10-16T09:40:45;94972.03;;;13.50;100.00
40384;BME280;26097;42.366;23.818;2022-10-16T09:43:47;94967.75;;;13.49;99.18
40384;BME280;26097;42.366;23.818;2022-10-16T09:46:49;94960.94;;;13.71;99.38
40384;BME280;26097;42.366;23.818;2022-10-16T09:50:01;94964.72;;;13.67;100.00
40384;BME280;26097;42.366;23.818;2022-10-16T09:53:14;94957.63;;;13.80;98.09
40384;BME280;26097;42.366;23.818;2022-10-16T09:56:27;94949.56;;;13.95;95.96
40384;BME280;26097;42.366;23.818;2022-10-16T09:59:27;94948.16;;;14.02;96.05
40384;BME280;26097;42.366;23.818;2022-10-16T10:02:34;94948.16;;;14.02;94.51
40384;BME280;26097;42.366;23.818;2022-10-16T10:05:37;94953.91;;;14.30;92.62
40384;BME280;26097;42.366;23.818;2022-10-16T10:08:39;94944.34;;;14.29;93.62
40384;BME280;26097;42.366;23.818;2022-10-16T10:11:43;94940.53;;;14.33;92.78
40384;BME280;26097;42.366;23.818;2022-10-16T10:14:50;94936.72;;;14.49;92.19
40384;BME280;26097;42.366;23.818;2022-10-16T10:17:53;94945.47;;;14.72;91.22
40384;BME280;26097;42.366;23.818;2022-10-16T10:20:59;94945.53;;;14.70;90.59
40384;BME280;26097;42.366;23.818;2022-10-16T10:24:00;94943.56;;;14.74;91.12
40384;BME280;26097;42.366;23.818;2022-10-16T10:27:08;94938.41;;;14.84;88.15
40384;BME280;26097;42.366;23.818;2022-10-16T10:30:37;94936.72;;;14.94;83.07
40384;BME280;26097;42.366;23.818;2022-10-16T10:34:02;94934.69;;;14.98;81.39
40384;BME280;26097;42.366;23.818;2022-10-16T10:37:37;94920.72;;;14.97;83.02
40384;BME280;26097;42.366;23.818;2022-10-16T10:40:51;94911.13;;;15.08;85.26
40384;BME280;26097;42.366;23.818;2022-10-16T10:50:55;94903.56;;;15.59;65.90
40384;BME280;26097;42.366;23.818;2022-10-16T11:06:55;94893.94;;;16.11;61.82
40384;BME280;26097;42.366;23.818;2022-10-16T11:10:50;94886.09;;;16.21;58.71
40384;BME280;26097;42.366;23.818;2022-10-16T11:20:20;94893.13;;;16.42;57.90
40384;BME280;26097;42.366;23.818;2022-10-16T11:23:38;94886.66;;;16.25;57.24
40384;BME280;26097;42.366;23.818;2022-10-16T11:26:42;94887.34;;;16.27;57.32
40384;BME280;26097;42.366;23.818;2022-10-16T11:29:55;94887.34;;;16.27;56.90
40384;BME280;26097;42.366;23.818;2022-10-16T11:33:20;94881.47;;;16.45;54.51
40384;BME280;26097;42.366;23.818;2022-10-16T11:36:31;94886.47;;;16.48;56.83
40384;BME280;26097;42.366;23.818;2022-10-16T11:39:33;94886.22;;;16.51;55.62
40384;BME280;26097;42.366;23.818;2022-10-16T11:42:44;94877.63;;;16.59;56.34
40384;BME280;26097;42.366;23.818;2022-10-16T11:45:49;94883.41;;;16.42;55.10
40384;BME280;26097;42.366;23.818;2022-10-16T11:49:12;94884.00;;;16.56;54.55
40384;BME280;26097;42.366;23.818;2022-10-16T11:52:36;94884.28;;;16.53;56.19
40384;BME280;26097;42.366;23.818;2022-10-16T11:55:41;94882.41;;;16.75;56.64
40384;BME280;26097;42.366;23.818;2022-10-16T12:02:19;94886.22;;;17.02;52.54
40384;BME280;26097;42.366;23.818;2022-10-16T12:08:26;94889.16;;;17.18;51.76
40384;BME280;26097;42.366;23.818;2022-10-16T12:14:40;94886.09;;;17.13;51.92
40384;BME280;26097;42.366;23.818;2022-10-16T12:17:40;94884.44;;;17.22;50.37
40384;BME280;26097;42.366;23.818;2022-10-16T12:20:40;94886.63;;;17.26;52.83
40384;BME280;26097;42.366;23.818;2022-10-16T12:23:48;94885.25;;;17.22;53.47
40384;BME280;26097;42.366;23.818;2022-10-16T12:26:50;94885.25;;;17.32;50.91
40384;BME280;26097;42.366;23.818;2022-10-16T12:29:59;94882.63;;;17.22;52.44
40384;BME280;26097;42.366;23.818;2022-10-16T12:36:45;94885.13;;;17.44;49.81
40384;BME280;26097;42.366;23.818;2022-10-16T12:39:47;94896.38;;;17.36;51.14
40384;BME280;26097;42.366;23.818;2022-10-16T12:42:48;94897.34;;;17.35;51.03
40384;BME280;26097;42.366;23.818;2022-10-16T12:45:59;94892.75;;;17.27;51.22
40384;BME280;26097;42.366;23.818;2022-10-16T12:49:23;94901.63;;;17.36;51.13
40384;BME280;26097;42.366;23.818;2022-10-16T12:52:37;94896.38;;;17.55;50.39
40384;BME280;26097;42.366;23.818;2022-10-16T12:55:52;94895.22;;;17.58;51.53
40384;BME280;26097;42.366;23.818;2022-10-16T12:59:28;94906.75;;;17.47;49.02
40384;BME280;26097;42.366;23.818;2022-10-16T13:12:55;94910.78;;;17.51;49.80
40384;BME280;26097;42.366;23.818;2022-10-16T13:19:03;94901.06;;;17.72;50.08
40384;BME280;26097;42.366;23.818;2022-10-16T13:28:42;94909.09;;;17.80;49.70
40384;BME280;26097;42.366;23.818;2022-10-16T13:31:43;94905.63;;;17.79;48.97
40384;BME280;26097;42.366;23.818;2022-10-16T13:34:46;94916.72;;;17.83;50.38
40384;BME280;26097;42.366;23.818;2022-10-16T13:37:47;94912.72;;;17.79;49.41
40384;BME280;26097;42.366;23.818;2022-10-16T13:40:53;94912.84;;;17.77;49.65
40384;BME280;26097;42.366;23.818;2022-10-16T13:43:54;94908.25;;;17.79;49.31
40384;BME280;26097;42.366;23.818;2022-10-16T13:47:00;94911.56;;;17.91;49.26
40384;BME280;26097;42.366;23.818;2022-10-16T13:53:05;94919.91;;;17.67;49.82
40384;BME280;26097;42.366;23.818;2022-10-16T13:56:11;94921.59;;;17.68;49.94
40384;BME280;26097;42.366;23.818;2022-10-16T13:59:36;94925.47;;;17.74;48.70
40384;BME280;26097;42.366;23.818;2022-10-16T14:02:40;94930.06;;;17.62;50.22
40384;BME280;26097;42.366;23.818;2022-10-16T14:08:53;94929.38;;;17.40;50.09
40384;BME280;26097;42.366;23.818;2022-10-16T14:12:06;94930.75;;;17.44;50.25
40384;BME280;26097;42.366;23.818;2022-10-16T14:15:16;94925.91;;;17.30;49.87
40384;BME280;26097;42.366;23.818;2022-10-16T14:18:25;94928.78;;;17.17;50.81
40384;BME280;26097;42.366;23.818;2022-10-16T14:21:28;94932.09;;;17.09;50.62
40384;BME280;26097;42.366;23.818;2022-10-16T14:27:35;94931.66;;;16.53;51.13
40384;BME280;26097;42.366;23.818;2022-10-16T14:30:36;94938.56;;;16.54;51.90
40384;BME280;26097;42.366;23.818;2022-10-16T14:33:37;94945.16;;;16.38;52.53
40384;BME280;26097;42.366;23.818;2022-10-16T14:36:40;94942.78;;;16.35;52.84
40384;BME280;26097;42.366;23.818;2022-10-16T14:39:41;94939.91;;;16.17;52.79
40384;BME280;26097;42.366;23.818;2022-10-16T14:42:43;94946.44;;;15.92;53.73
40384;BME280;26097;42.366;23.818;2022-10-16T14:45:51;94956.03;;;15.70;53.45
40384;BME280;26097;42.366;23.818;2022-10-16T14:48:58;94953.56;;;15.36;54.39
40384;BME280;26097;42.366;23.818;2022-10-16T14:52:01;94959.34;;;15.18;54.67
40384;BME280;26097;42.366;23.818;2022-10-16T14:55:02;94966.28;;;15.08;55.18
40384;BME280;26097;42.366;23.818;2022-10-16T14:58:02;94965.81;;;14.91;55.74
40384;BME280;26097;42.366;23.818;2022-10-16T15:01:02;94970.03;;;14.71;56.19
40384;BME280;26097;42.366;23.818;2022-10-16T15:04:03;94969.28;;;14.35;56.65
40384;BME280;26097;42.366;23.818;2022-10-16T15:07:04;94972.25;;;14.19;57.82
40384;BME280;26097;42.366;23.818;2022-10-16T15:10:04;94975.66;;;13.96;58.76
40384;BME280;26097;42.366;23.818;2022-10-16T15:13:05;94975.94;;;13.69;60.60
40384;BME280;26097;42.366;23.818;2022-10-16T15:16:10;94973.00;;;13.49;61.35
40384;BME280;26097;42.366;23.818;2022-10-16T15:19:11;94980.00;;;13.24;62.12
40384;BME280;26097;42.366;23.818;2022-10-16T15:22:11;94982.81;;;12.97;62.59
40384;BME280;26097;42.366;23.818;2022-10-16T15:28:33;94984.78;;;12.43;64.39
40384;BME280;26097;42.366;23.818;2022-10-16T15:31:33;94988.88;;;12.21;65.02
40384;BME280;26097;42.366;23.818;2022-10-16T15:34:34;94993.94;;;11.97;64.55
40384;BME280;26097;42.366;23.818;2022-10-16T15:37:34;95000.16;;;11.68;65.77
40384;BME280;26097;42.366;23.818;2022-10-16T15:40:35;95002.91;;;11.39;66.07
40384;BME280;26097;42.366;23.818;2022-10-16T15:43:35;95009.25;;;11.08;67.81
40384;BME280;26097;42.366;23.818;2022-10-16T15:46:35;95010.22;;;10.92;66.90
40384;BME280;26097;42.366;23.818;2022-10-16T15:49:37;95009.34;;;10.64;68.19
40384;BME280;26097;42.366;23.818;2022-10-16T15:52:37;95012.63;;;10.37;69.00
40384;BME280;26097;42.366;23.818;2022-10-16T15:55:39;95021.84;;;10.14;70.52
40384;BME280;26097;42.366;23.818;2022-10-16T15:58:39;95024.31;;;9.86;72.59
40384;BME280;26097;42.366;23.818;2022-10-16T16:01:40;95035.47;;;9.58;73.91
40384;BME280;26097;42.366;23.818;2022-10-16T16:04:40;95039.00;;;9.41;75.33
40384;BME280;26097;42.366;23.818;2022-10-16T16:07:41;95042.91;;;9.18;76.30
40384;BME280;26097;42.366;23.818;2022-10-16T16:10:41;95048.59;;;8.92;77.56
40384;BME280;26097;42.366;23.818;2022-10-16T16:13:41;95050.91;;;8.81;79.37
40384;BME280;26097;42.366;23.818;2022-10-16T16:16:42;95062.00;;;8.68;79.15
40384;BME280;26097;42.366;23.818;2022-10-16T16:19:42;95065.22;;;8.56;79.16
40384;BME280;26097;42.366;23.818;2022-10-16T16:22:43;95065.72;;;8.29;80.30
40384;BME280;26097;42.366;23.818;2022-10-16T16:25:43;95084.06;;;8.08;82.27
40384;BME280;26097;42.366;23.818;2022-10-16T16:28:44;95082.44;;;7.88;84.11
40384;BME280;26097;42.366;23.818;2022-10-16T16:31:44;95089.22;;;7.73;87.26
40384;BME280;26097;42.366;23.818;2022-10-16T16:34:47;95098.91;;;7.69;86.57
40384;BME280;26097;42.366;23.818;2022-10-16T16:37:47;95100.66;;;7.51;87.61
40384;BME280;26097;42.366;23.818;2022-10-16T16:40:48;95098.25;;;7.47;88.54
40384;BME280;26097;42.366;23.818;2022-10-16T16:43:48;95106.75;;;7.31;89.33
40384;BME280;26097;42.366;23.818;2022-10-16T16:46:51;95111.69;;;7.18;91.18
40384;BME280;26097;42.366;23.818;2022-10-16T16:49:51;95120.44;;;7.15;92.57
40384;BME280;26097;42.366;23.818;2022-10-16T16:52:52;95119.38;;;7.00;95.72
40384;BME280;26097;42.366;23.818;2022-10-16T16:55:52;95123.56;;;6.84;97.33
40384;BME280;26097;42.366;23.818;2022-10-16T16:58:54;95135.31;;;6.72;98.54
40384;BME280;26097;42.366;23.818;2022-10-16T17:01:55;95127.75;;;6.67;100.00
40384;BME280;26097;42.366;23.818;2022-10-16T17:04:55;95133.63;;;6.52;100.00
40384;BME280;26097;42.366;23.818;2022-10-16T17:07:57;95148.50;;;6.47;100.00
40384;BME280;26097;42.366;23.818;2022-10-16T17:10:58;95147.22;;;6.36;100.00
40384;BME280;26097;42.366;23.818;2022-10-16T17:13:59;95143.22;;;6.29;100.00
40384;BME280;26097;42.366;23.818;2022-10-16T17:17:00;95149.41;;;6.25;100.00
40384;BME280;26097;42.366;23.818;2022-10-16T17:20:00;95141.03;;;6.18;100.00
40384;BME280;26097;42.366;23.818;2022-10-16T17:23:00;95146.44;;;6.13;100.00
40384;BME280;26097;42.366;23.818;2022-10-16T17:26:09;95153.53;;;6.08;100.00
40384;BME280;26097;42.366;23.818;2022-10-16T17:29:10;95149.78;;;5.93;100.00
40384;BME280;26097;42.366;23.818;2022-10-16T17:32:11;95153.53;;;5.86;100.00
40384;BME280;26097;42.366;23.818;2022-10-16T17:35:11;95158.72;;;5.86;100.00
40384;BME280;26097;42.366;23.818;2022-10-16T17:38:13;95154.63;;;5.80;100.00
40384;BME280;26097;42.366;23.818;2022-10-16T17:41:22;95158.25;;;5.76;100.00
40384;BME280;26097;42.366;23.818;2022-10-16T17:44:23;95160.28;;;5.68;100.00
40384;BME280;26097;42.366;23.818;2022-10-16T17:47:23;95162.34;;;5.60;100.00